ルクセンブルク の空港の天気 - METARとTAF

ルクセンブルク-フィンデル空港 ( ELLX / LUX ) - ルクセンブルク ルクセンブルク
飛行場実況気象(Metar)
観測時間08/04 21:50 CEST (08/04 19:50 UTC)
風向・風速北西 3m/s
視程10km以上
天気現象
なし
気温18℃
湿度52%
気圧1018hPa
METARELLX 041950Z 32006KT CAVOK 18/08 Q1018 NOSIG
過去の天気等 Google飛行場航空写真 Wunderground天気予報

過去48時間のMETAR

飛行場予報(TAF)
発表時間: 8/04 19:00 CEST (8/04 17:00 UTC)
予報対象時間: 4日20時 CEST ~ 6日2時 CEST
風向・風速北西 4m/s
視程10km以上
なし
4日23時 CEST ~ 5日8時 CEST に一時的に
風向・風速不定 1m/s
5日8時 CEST ~ 5日11時 CEST に徐々に
風向・風速南南東 3m/s
TAF ELLX 041700Z 0418/0524 31007KT CAVOK
TEMPO 0421/0506 VRB02KT
BECMG 0506/0509 15005KT